UAL184 RPLL-PGUM
Flight info
| Callsign | UAL184 |
|---|---|
| Flight time | 3h 7m |
| Altitude | 37000 |
| Route | JOM2C JOM G467 ACRON |
| Aircraft | B738/M-SDE2E3FGHIRWXY/LB1 |
Departure
| Time | 2026-04-21 20:08 |
|---|---|
| Airport | Ninoy Aquino International Airport (RPLL) |
Arrival
| Time | 2026-04-21 23:16 |
|---|---|
| Airport | Antonio B. Won Pat International Airport (PGUM) |
| Time | Latitude | Longitude | Altitude | Speed | Heading |
|---|---|---|---|---|---|
| 2026-04-21 19:58 | 14.52055 | 121.01138 | 68 ft | 0 kts | 44° |
| 2026-04-21 20:01 | 14.52050 | 121.01133 | 58 ft | 4 kts | 44° |
| 2026-04-21 20:01 | 14.52030 | 121.01114 | 65 ft | 4 kts | 41° |
| 2026-04-21 20:01 | 14.52010 | 121.01096 | 58 ft | 4 kts | 37° |
| 2026-04-21 20:01 | 14.51987 | 121.01080 | 63 ft | 4 kts | 26° |
| 2026-04-21 20:02 | 14.51963 | 121.01073 | 66 ft | 4 kts | 346° |
| 2026-04-21 20:02 | 14.51954 | 121.01076 | 58 ft | 1 kts | 315° |
| 2026-04-21 20:04 | 14.51963 | 121.01067 | 67 ft | 5 kts | 315° |
| 2026-04-21 20:05 | 14.52013 | 121.01014 | 63 ft | 15 kts | 315° |
| 2026-04-21 20:05 | 14.52104 | 121.00920 | 65 ft | 21 kts | 315° |
| 2026-04-21 20:05 | 14.52195 | 121.00827 | 65 ft | 17 kts | 315° |
| 2026-04-21 20:05 | 14.52258 | 121.00763 | 64 ft | 11 kts | 315° |
| 2026-04-21 20:06 | 14.52310 | 121.00708 | 63 ft | 10 kts | 315° |
| 2026-04-21 20:06 | 14.52361 | 121.00656 | 63 ft | 10 kts | 315° |
| 2026-04-21 20:06 | 14.52410 | 121.00606 | 66 ft | 10 kts | 316° |
| 2026-04-21 20:06 | 14.52458 | 121.00556 | 65 ft | 10 kts | 315° |
| 2026-04-21 20:07 | 14.52488 | 121.00506 | 66 ft | 8 kts | 257° |
| 2026-04-21 20:07 | 14.52458 | 121.00463 | 66 ft | 7 kts | 226° |
| 2026-04-21 20:07 | 14.52423 | 121.00426 | 65 ft | 7 kts | 226° |
| 2026-04-21 20:07 | 14.52382 | 121.00389 | 63 ft | 10 kts | 192° |
| 2026-04-21 20:08 | 14.52294 | 121.00472 | 67 ft | 38 kts | 134° |
| 2026-04-21 20:08 | 14.51914 | 121.00869 | 68 ft | 115 kts | 135° |
| 2026-04-21 20:08 | 14.51198 | 121.01617 | 145 ft | 171 kts | 134° |
| 2026-04-21 20:08 | 14.50354 | 121.02493 | 1001 ft | 168 kts | 129° |
| 2026-04-21 20:09 | 14.49880 | 121.03576 | 1906 ft | 167 kts | 105° |
| 2026-04-21 20:09 | 14.49529 | 121.04710 | 2785 ft | 164 kts | 107° |
| 2026-04-21 20:09 | 14.49246 | 121.05840 | 3596 ft | 168 kts | 88° |
| 2026-04-21 20:09 | 14.49611 | 121.07083 | 3952 ft | 198 kts | 67° |
| 2026-04-21 20:10 | 14.50388 | 121.08375 | 4163 ft | 226 kts | 53° |
| 2026-04-21 20:10 | 14.51411 | 121.09701 | 4475 ft | 248 kts | 53° |
| 2026-04-21 20:10 | 14.52292 | 121.11260 | 4922 ft | 262 kts | 76° |
| 2026-04-21 20:10 | 14.52599 | 121.13122 | 5783 ft | 265 kts | 82° |
| 2026-04-21 20:11 | 14.52868 | 121.15043 | 6615 ft | 270 kts | 82° |
| 2026-04-21 20:11 | 14.53142 | 121.16968 | 7461 ft | 272 kts | 82° |
| 2026-04-21 20:11 | 14.53419 | 121.18880 | 8334 ft | 273 kts | 81° |
| 2026-04-21 20:11 | 14.53705 | 121.20829 | 9206 ft | 276 kts | 81° |
| 2026-04-21 20:12 | 14.53995 | 121.22799 | 10033 ft | 280 kts | 81° |
| 2026-04-21 20:12 | 14.54296 | 121.24828 | 10505 ft | 297 kts | 81° |
| 2026-04-21 20:12 | 14.54624 | 121.27033 | 10673 ft | 323 kts | 81° |
| 2026-04-21 20:12 | 14.54974 | 121.29381 | 11067 ft | 338 kts | 81° |
| 2026-04-21 20:13 | 14.55334 | 121.31798 | 11717 ft | 343 kts | 80° |
| 2026-04-21 20:13 | 14.55699 | 121.34249 | 12414 ft | 348 kts | 80° |
| 2026-04-21 20:13 | 14.56074 | 121.36740 | 13006 ft | 355 kts | 80° |
| 2026-04-21 20:13 | 14.56460 | 121.39285 | 13642 ft | 361 kts | 79° |
| 2026-04-21 20:14 | 14.56853 | 121.41861 | 14220 ft | 366 kts | 80° |
| 2026-04-21 20:14 | 14.57249 | 121.44468 | 14828 ft | 369 kts | 80° |
| 2026-04-21 20:14 | 14.57649 | 121.47100 | 15386 ft | 374 kts | 80° |
| 2026-04-21 20:14 | 14.58053 | 121.49767 | 15957 ft | 378 kts | 81° |
| 2026-04-21 20:15 | 14.58461 | 121.52458 | 16529 ft | 381 kts | 81° |
| 2026-04-21 20:15 | 14.58871 | 121.55168 | 17112 ft | 384 kts | 81° |
| 2026-04-21 20:15 | 14.59284 | 121.57908 | 17670 ft | 387 kts | 81° |
| 2026-04-21 20:15 | 14.59701 | 121.60670 | 18179 ft | 392 kts | 82° |
| 2026-04-21 20:16 | 14.60123 | 121.63469 | 18598 ft | 396 kts | 82° |
| 2026-04-21 20:16 | 14.60549 | 121.66291 | 19081 ft | 399 kts | 81° |
| 2026-04-21 20:16 | 14.60977 | 121.69139 | 19450 ft | 405 kts | 82° |
| 2026-04-21 20:16 | 14.61412 | 121.72030 | 19893 ft | 408 kts | 82° |
| 2026-04-21 20:17 | 14.61846 | 121.74921 | 20461 ft | 407 kts | 81° |
| 2026-04-21 20:17 | 14.62280 | 121.77812 | 20946 ft | 410 kts | 81° |
| 2026-04-21 20:17 | 14.62720 | 121.80740 | 21273 ft | 416 kts | 81° |
| 2026-04-21 20:17 | 14.63165 | 121.83704 | 21684 ft | 420 kts | 81° |
| 2026-04-21 20:18 | 14.63462 | 121.85682 | 21967 ft | 421 kts | 81° |
| 2026-04-21 20:18 | 14.64064 | 121.89700 | 22537 ft | 425 kts | 81° |
| 2026-04-21 20:18 | 14.64517 | 121.92729 | 22941 ft | 429 kts | 81° |
| 2026-04-21 20:18 | 14.64973 | 121.95784 | 23337 ft | 432 kts | 81° |
| 2026-04-21 20:19 | 14.65432 | 121.98858 | 23684 ft | 435 kts | 81° |
| 2026-04-21 20:19 | 14.65894 | 122.01955 | 24029 ft | 437 kts | 81° |
| 2026-04-21 20:19 | 14.66358 | 122.05068 | 24387 ft | 439 kts | 81° |
| 2026-04-21 20:19 | 14.66823 | 122.08191 | 24735 ft | 441 kts | 81° |
| 2026-04-21 20:20 | 14.67291 | 122.11336 | 25053 ft | 444 kts | 81° |
| 2026-04-21 20:20 | 14.67760 | 122.14495 | 25393 ft | 447 kts | 81° |
| 2026-04-21 20:20 | 14.68232 | 122.17677 | 25737 ft | 449 kts | 81° |
| 2026-04-21 20:20 | 14.68706 | 122.20868 | 26074 ft | 451 kts | 81° |
| 2026-04-21 20:21 | 14.69181 | 122.24075 | 26399 ft | 453 kts | 81° |
| 2026-04-21 20:21 | 14.69658 | 122.27296 | 26723 ft | 455 kts | 81° |
| 2026-04-21 20:21 | 14.70137 | 122.30536 | 27046 ft | 457 kts | 81° |
| 2026-04-21 20:21 | 14.70560 | 122.33759 | 27353 ft | 460 kts | 86° |
| 2026-04-21 20:22 | 14.70595 | 122.37067 | 27623 ft | 463 kts | 92° |
| 2026-04-21 20:22 | 14.70232 | 122.43748 | 28236 ft | 467 kts | 94° |
| 2026-04-21 20:22 | 14.70010 | 122.47098 | 28500 ft | 470 kts | 94° |
| 2026-04-21 20:23 | 14.69803 | 122.50477 | 28813 ft | 472 kts | 94° |
| 2026-04-21 20:23 | 14.69614 | 122.53908 | 29147 ft | 473 kts | 93° |
| 2026-04-21 20:23 | 14.69447 | 122.57266 | 29407 ft | 476 kts | 93° |
| 2026-04-21 20:23 | 14.69289 | 122.60681 | 29709 ft | 477 kts | 93° |
| 2026-04-21 20:24 | 14.69136 | 122.64114 | 29918 ft | 481 kts | 92° |
| 2026-04-21 20:24 | 14.68986 | 122.67571 | 30171 ft | 482 kts | 92° |
| 2026-04-21 20:24 | 14.68835 | 122.71036 | 30404 ft | 484 kts | 92° |
| 2026-04-21 20:24 | 14.68683 | 122.74519 | 30601 ft | 486 kts | 92° |
| 2026-04-21 20:25 | 14.68528 | 122.78009 | 30865 ft | 487 kts | 92° |
| 2026-04-21 20:25 | 14.68373 | 122.81502 | 31146 ft | 487 kts | 93° |
| 2026-04-21 20:25 | 14.68216 | 122.84995 | 31474 ft | 486 kts | 93° |
| 2026-04-21 20:25 | 14.68059 | 122.88481 | 31784 ft | 486 kts | 93° |
| 2026-04-21 20:26 | 14.67901 | 122.91969 | 32093 ft | 486 kts | 93° |
| 2026-04-21 20:26 | 14.67743 | 122.95446 | 32430 ft | 485 kts | 93° |
| 2026-04-21 20:26 | 14.67585 | 122.98923 | 32760 ft | 484 kts | 93° |
| 2026-04-21 20:26 | 14.67426 | 123.02386 | 33103 ft | 483 kts | 93° |
| 2026-04-21 20:27 | 14.67267 | 123.05851 | 33428 ft | 482 kts | 93° |
| 2026-04-21 20:27 | 14.67109 | 123.09306 | 33757 ft | 482 kts | 93° |
| 2026-04-21 20:27 | 14.66949 | 123.12755 | 34063 ft | 481 kts | 93° |
| 2026-04-21 20:27 | 14.66790 | 123.16206 | 34338 ft | 481 kts | 93° |
| 2026-04-21 20:28 | 14.66629 | 123.19655 | 34518 ft | 483 kts | 93° |
| 2026-04-21 20:28 | 14.66467 | 123.23130 | 34639 ft | 486 kts | 93° |
| 2026-04-21 20:28 | 14.66304 | 123.26625 | 34782 ft | 489 kts | 93° |
| 2026-04-21 20:28 | 14.66139 | 123.30133 | 34979 ft | 489 kts | 93° |
| 2026-04-21 20:29 | 14.65974 | 123.33639 | 35251 ft | 488 kts | 93° |
| 2026-04-21 20:29 | 14.65810 | 123.37135 | 35537 ft | 487 kts | 93° |
| 2026-04-21 20:29 | 14.65644 | 123.40627 | 35783 ft | 487 kts | 93° |
| 2026-04-21 20:29 | 14.65479 | 123.44119 | 35979 ft | 488 kts | 93° |
| 2026-04-21 20:30 | 14.65312 | 123.47621 | 36135 ft | 489 kts | 93° |
| 2026-04-21 20:30 | 14.65144 | 123.51132 | 36363 ft | 489 kts | 93° |
| 2026-04-21 20:30 | 14.64976 | 123.54634 | 36635 ft | 488 kts | 94° |
| 2026-04-21 20:30 | 14.64808 | 123.58128 | 36889 ft | 487 kts | 94° |
| 2026-04-21 20:31 | 14.64468 | 123.65154 | 36919 ft | 491 kts | 94° |
| 2026-04-21 20:31 | 14.64130 | 123.72117 | 36907 ft | 487 kts | 94° |
| 2026-04-21 20:32 | 14.63788 | 123.79122 | 36912 ft | 483 kts | 94° |
| 2026-04-21 20:32 | 14.63450 | 123.85988 | 36917 ft | 481 kts | 94° |
| 2026-04-21 20:33 | 14.63108 | 123.92880 | 36921 ft | 480 kts | 94° |
| 2026-04-21 20:33 | 14.62765 | 123.99768 | 36921 ft | 481 kts | 94° |
| 2026-04-21 20:34 | 14.62419 | 124.06681 | 36925 ft | 483 kts | 94° |
| 2026-04-21 20:34 | 14.62069 | 124.13621 | 36927 ft | 485 kts | 94° |
| 2026-04-21 20:35 | 14.61715 | 124.20592 | 36926 ft | 487 kts | 94° |
| 2026-04-21 20:35 | 14.61358 | 124.27596 | 36923 ft | 490 kts | 94° |
| 2026-04-21 20:36 | 14.60997 | 124.34630 | 36920 ft | 491 kts | 94° |
| 2026-04-21 20:36 | 14.60633 | 124.41683 | 36919 ft | 492 kts | 94° |
| 2026-04-21 20:37 | 14.60267 | 124.48745 | 36920 ft | 492 kts | 94° |
| 2026-04-21 20:37 | 14.59899 | 124.55797 | 36921 ft | 492 kts | 94° |
| 2026-04-21 20:38 | 14.59529 | 124.62845 | 36921 ft | 491 kts | 94° |
| 2026-04-21 20:38 | 14.59158 | 124.69874 | 36918 ft | 490 kts | 94° |
| 2026-04-21 20:39 | 14.58848 | 124.75706 | 36921 ft | 489 kts | 94° |
| 2026-04-21 20:39 | 14.58475 | 124.82708 | 36920 ft | 488 kts | 94° |
| 2026-04-21 20:40 | 14.58100 | 124.89695 | 36920 ft | 487 kts | 94° |
| 2026-04-21 20:40 | 14.57724 | 124.96668 | 36918 ft | 486 kts | 94° |
| 2026-04-21 20:41 | 14.57345 | 125.03636 | 36921 ft | 486 kts | 94° |
| 2026-04-21 20:41 | 14.56965 | 125.10605 | 36922 ft | 486 kts | 94° |
| 2026-04-21 20:42 | 14.56583 | 125.17570 | 36922 ft | 486 kts | 94° |
| 2026-04-21 20:42 | 14.56199 | 125.24542 | 36922 ft | 487 kts | 94° |
| 2026-04-21 20:43 | 14.55812 | 125.31517 | 36925 ft | 487 kts | 94° |
| 2026-04-21 20:43 | 14.55423 | 125.38498 | 36920 ft | 488 kts | 94° |
| 2026-04-21 20:44 | 14.55031 | 125.45490 | 36921 ft | 488 kts | 94° |
| 2026-04-21 20:44 | 14.54637 | 125.52483 | 36926 ft | 488 kts | 94° |
| 2026-04-21 20:45 | 14.54241 | 125.59482 | 36921 ft | 488 kts | 94° |
| 2026-04-21 20:45 | 14.53842 | 125.66480 | 36924 ft | 489 kts | 94° |
| 2026-04-21 20:46 | 14.53442 | 125.73479 | 36925 ft | 489 kts | 94° |
| 2026-04-21 20:46 | 14.53039 | 125.80478 | 36922 ft | 488 kts | 94° |
| 2026-04-21 20:47 | 14.52635 | 125.87473 | 36924 ft | 488 kts | 94° |
| 2026-04-21 20:47 | 14.52229 | 125.94464 | 36924 ft | 488 kts | 94° |
| 2026-04-21 20:48 | 14.51796 | 126.01451 | 36917 ft | 488 kts | 98° |
| 2026-04-21 20:48 | 14.51016 | 126.04839 | 36926 ft | 485 kts | 113° |
| 2026-04-21 20:48 | 14.49545 | 126.07956 | 36926 ft | 482 kts | 121° |
| 2026-04-21 20:49 | 14.48178 | 126.11062 | 36909 ft | 484 kts | 108° |
| 2026-04-21 20:49 | 14.47513 | 126.14463 | 36928 ft | 485 kts | 95° |
| 2026-04-21 20:49 | 14.47108 | 126.21413 | 36926 ft | 486 kts | 93° |
| 2026-04-21 20:50 | 14.46782 | 126.28381 | 36916 ft | 487 kts | 93° |
| 2026-04-21 20:50 | 14.46404 | 126.35359 | 36922 ft | 488 kts | 94° |
| 2026-04-21 20:51 | 14.45984 | 126.42346 | 36924 ft | 488 kts | 94° |
| 2026-04-21 20:51 | 14.45551 | 126.49345 | 36925 ft | 489 kts | 94° |
| 2026-04-21 20:52 | 14.45116 | 126.56355 | 36926 ft | 490 kts | 94° |
| 2026-04-21 20:52 | 14.44683 | 126.63369 | 36923 ft | 490 kts | 94° |
| 2026-04-21 20:53 | 14.44250 | 126.70388 | 36924 ft | 490 kts | 94° |
| 2026-04-21 20:53 | 14.43817 | 126.77401 | 36925 ft | 490 kts | 94° |
| 2026-04-21 20:54 | 14.43384 | 126.84412 | 36921 ft | 489 kts | 94° |
| 2026-04-21 20:54 | 14.42954 | 126.91364 | 36924 ft | 489 kts | 94° |
| 2026-04-21 20:55 | 14.42520 | 126.98352 | 36926 ft | 488 kts | 94° |
| 2026-04-21 20:55 | 14.42084 | 127.05332 | 36927 ft | 487 kts | 94° |
| 2026-04-21 20:56 | 14.41647 | 127.12303 | 36926 ft | 487 kts | 94° |
| 2026-04-21 20:56 | 14.41209 | 127.19262 | 36923 ft | 486 kts | 94° |
| 2026-04-21 20:57 | 14.40768 | 127.26212 | 36928 ft | 485 kts | 94° |
| 2026-04-21 20:57 | 14.40324 | 127.33159 | 36927 ft | 485 kts | 94° |
| 2026-04-21 20:58 | 14.39878 | 127.40105 | 36927 ft | 485 kts | 94° |
| 2026-04-21 20:58 | 14.39429 | 127.47047 | 36927 ft | 485 kts | 94° |
| 2026-04-21 20:59 | 14.38977 | 127.53989 | 36922 ft | 485 kts | 94° |
| 2026-04-21 20:59 | 14.38523 | 127.60934 | 36928 ft | 486 kts | 94° |
| 2026-04-21 21:00 | 14.38065 | 127.67886 | 36930 ft | 486 kts | 94° |
| 2026-04-21 21:00 | 14.37604 | 127.74846 | 36929 ft | 486 kts | 94° |
| 2026-04-21 21:01 | 14.37141 | 127.81810 | 36930 ft | 487 kts | 94° |
| 2026-04-21 21:01 | 14.36675 | 127.88782 | 36924 ft | 487 kts | 94° |
| 2026-04-21 21:02 | 14.36208 | 127.95759 | 36925 ft | 488 kts | 94° |
| 2026-04-21 21:02 | 14.35738 | 128.02741 | 36922 ft | 488 kts | 94° |
| 2026-04-21 21:03 | 14.35266 | 128.09724 | 36928 ft | 488 kts | 94° |
| 2026-04-21 21:03 | 14.34796 | 128.16665 | 36927 ft | 488 kts | 94° |
| 2026-04-21 21:04 | 14.34321 | 128.23653 | 36928 ft | 489 kts | 94° |
| 2026-04-21 21:04 | 14.33844 | 128.30639 | 36931 ft | 489 kts | 94° |
| 2026-04-21 21:05 | 14.33365 | 128.37627 | 36924 ft | 489 kts | 94° |
| 2026-04-21 21:05 | 14.32883 | 128.44621 | 36926 ft | 489 kts | 94° |
| 2026-04-21 21:06 | 14.32400 | 128.51610 | 36930 ft | 488 kts | 94° |
| 2026-04-21 21:06 | 14.31915 | 128.58594 | 36930 ft | 488 kts | 94° |
| 2026-04-21 21:07 | 14.31429 | 128.65576 | 36938 ft | 488 kts | 94° |
| 2026-04-21 21:07 | 14.30940 | 128.72560 | 36925 ft | 488 kts | 94° |
| 2026-04-21 21:08 | 14.30450 | 128.79540 | 36931 ft | 488 kts | 94° |
| 2026-04-21 21:08 | 14.29958 | 128.86512 | 36930 ft | 488 kts | 94° |
| 2026-04-21 21:09 | 14.29464 | 128.93485 | 36929 ft | 488 kts | 94° |
| 2026-04-21 21:09 | 14.28967 | 129.00462 | 36929 ft | 488 kts | 94° |
| 2026-04-21 21:10 | 14.28468 | 129.07437 | 36928 ft | 488 kts | 95° |
| 2026-04-21 21:10 | 14.27967 | 129.14412 | 36925 ft | 488 kts | 95° |
| 2026-04-21 21:11 | 14.27465 | 129.21382 | 36931 ft | 488 kts | 95° |
| 2026-04-21 21:11 | 14.26960 | 129.28354 | 36929 ft | 488 kts | 95° |
| 2026-04-21 21:12 | 14.26453 | 129.35331 | 36924 ft | 488 kts | 95° |
| 2026-04-21 21:12 | 14.25948 | 129.42258 | 36928 ft | 488 kts | 95° |
| 2026-04-21 21:13 | 14.25437 | 129.49226 | 36928 ft | 488 kts | 95° |
| 2026-04-21 21:13 | 14.24925 | 129.56194 | 36924 ft | 487 kts | 95° |
| 2026-04-21 21:14 | 14.24411 | 129.63162 | 36932 ft | 487 kts | 95° |
| 2026-04-21 21:14 | 14.23895 | 129.70117 | 36928 ft | 486 kts | 95° |
| 2026-04-21 21:15 | 14.23378 | 129.77063 | 36929 ft | 486 kts | 95° |
| 2026-04-21 21:15 | 14.22860 | 129.84005 | 36931 ft | 485 kts | 95° |
| 2026-04-21 21:16 | 14.22340 | 129.90932 | 36928 ft | 485 kts | 95° |
| 2026-04-21 21:16 | 14.21818 | 129.97860 | 36930 ft | 484 kts | 95° |
| 2026-04-21 21:17 | 14.21439 | 130.04781 | 36934 ft | 484 kts | 91° |
| 2026-04-21 21:17 | 14.21453 | 130.11710 | 36929 ft | 483 kts | 89° |
| 2026-04-21 21:18 | 14.21504 | 130.18592 | 36932 ft | 483 kts | 90° |
| 2026-04-21 21:18 | 14.21497 | 130.25509 | 36928 ft | 483 kts | 90° |
| 2026-04-21 21:19 | 14.21450 | 130.32431 | 36928 ft | 483 kts | 90° |
| 2026-04-21 21:19 | 14.21393 | 130.39345 | 36927 ft | 483 kts | 90° |
| 2026-04-21 21:20 | 14.21334 | 130.46261 | 36930 ft | 483 kts | 90° |
| 2026-04-21 21:20 | 14.21276 | 130.53177 | 36931 ft | 482 kts | 90° |
| 2026-04-21 21:21 | 14.21217 | 130.60090 | 36924 ft | 483 kts | 91° |
| 2026-04-21 21:21 | 14.21156 | 130.67006 | 36936 ft | 483 kts | 91° |
| 2026-04-21 21:22 | 14.21093 | 130.73926 | 36930 ft | 483 kts | 91° |
| 2026-04-21 21:22 | 14.21027 | 130.80852 | 36930 ft | 483 kts | 91° |
| 2026-04-21 21:23 | 14.20960 | 130.87779 | 36930 ft | 484 kts | 91° |
| 2026-04-21 21:23 | 14.20890 | 130.94719 | 36930 ft | 484 kts | 91° |
| 2026-04-21 21:24 | 14.20819 | 131.01654 | 36930 ft | 484 kts | 91° |
| 2026-04-21 21:24 | 14.20745 | 131.08596 | 36930 ft | 484 kts | 91° |
| 2026-04-21 21:25 | 14.20670 | 131.15537 | 36931 ft | 484 kts | 91° |
| 2026-04-21 21:25 | 14.20592 | 131.22474 | 36929 ft | 484 kts | 91° |
| 2026-04-21 21:26 | 14.20526 | 131.28285 | 36929 ft | 484 kts | 91° |
| 2026-04-21 21:26 | 14.20445 | 131.35167 | 36931 ft | 483 kts | 91° |
| 2026-04-21 21:27 | 14.20363 | 131.42090 | 36930 ft | 483 kts | 91° |
| 2026-04-21 21:27 | 14.20278 | 131.49008 | 36929 ft | 482 kts | 91° |
| 2026-04-21 21:28 | 14.20191 | 131.55915 | 36934 ft | 482 kts | 91° |
| 2026-04-21 21:29 | 14.20057 | 131.66267 | 36926 ft | 481 kts | 91° |
| 2026-04-21 21:29 | 14.19966 | 131.73161 | 36935 ft | 481 kts | 91° |
| 2026-04-21 21:30 | 14.19872 | 131.80055 | 36937 ft | 481 kts | 91° |
| 2026-04-21 21:30 | 14.19777 | 131.86937 | 36933 ft | 480 kts | 91° |
| 2026-04-21 21:31 | 14.19680 | 131.93827 | 36934 ft | 480 kts | 91° |
| 2026-04-21 21:31 | 14.19580 | 132.00712 | 36938 ft | 480 kts | 91° |
| 2026-04-21 21:32 | 14.19479 | 132.07597 | 36932 ft | 480 kts | 91° |
| 2026-04-21 21:32 | 14.19376 | 132.14478 | 36933 ft | 480 kts | 91° |
| 2026-04-21 21:33 | 14.19271 | 132.21359 | 36933 ft | 480 kts | 91° |
| 2026-04-21 21:33 | 14.19164 | 132.28249 | 36932 ft | 480 kts | 91° |
| 2026-04-21 21:34 | 14.19055 | 132.35122 | 36936 ft | 480 kts | 91° |
| 2026-04-21 21:34 | 14.18944 | 132.42002 | 36934 ft | 480 kts | 91° |
| 2026-04-21 21:35 | 14.18831 | 132.48874 | 36936 ft | 480 kts | 91° |
| 2026-04-21 21:35 | 14.18717 | 132.55699 | 36937 ft | 479 kts | 91° |
| 2026-04-21 21:36 | 14.18600 | 132.62564 | 36936 ft | 479 kts | 91° |
| 2026-04-21 21:36 | 14.18482 | 132.69424 | 36934 ft | 479 kts | 91° |
| 2026-04-21 21:37 | 14.18362 | 132.76278 | 36941 ft | 478 kts | 91° |
| 2026-04-21 21:37 | 14.18239 | 132.83128 | 36940 ft | 478 kts | 91° |
| 2026-04-21 21:38 | 14.18115 | 132.89969 | 36940 ft | 478 kts | 91° |
| 2026-04-21 21:38 | 14.17990 | 132.96813 | 36944 ft | 477 kts | 91° |
| 2026-04-21 21:39 | 14.17862 | 133.03653 | 36941 ft | 477 kts | 91° |
| 2026-04-21 21:39 | 14.17732 | 133.10491 | 36941 ft | 477 kts | 91° |
| 2026-04-21 21:40 | 14.17600 | 133.17329 | 36944 ft | 477 kts | 91° |
| 2026-04-21 21:40 | 14.17467 | 133.24167 | 36946 ft | 477 kts | 91° |
| 2026-04-21 21:41 | 14.17331 | 133.31006 | 36938 ft | 477 kts | 91° |
| 2026-04-21 21:41 | 14.17193 | 133.37854 | 36945 ft | 478 kts | 91° |
| 2026-04-21 21:42 | 14.17054 | 133.44694 | 36948 ft | 478 kts | 91° |
| 2026-04-21 21:42 | 14.16912 | 133.51545 | 36941 ft | 478 kts | 91° |
| 2026-04-21 21:43 | 14.16769 | 133.58393 | 36940 ft | 478 kts | 91° |
| 2026-04-21 21:43 | 14.16623 | 133.65247 | 36943 ft | 478 kts | 91° |
| 2026-04-21 21:44 | 14.16476 | 133.72096 | 36941 ft | 478 kts | 91° |
| 2026-04-21 21:44 | 14.16326 | 133.78943 | 36942 ft | 478 kts | 91° |
| 2026-04-21 21:45 | 14.16175 | 133.85785 | 36936 ft | 477 kts | 91° |
| 2026-04-21 21:45 | 14.16022 | 133.92622 | 36942 ft | 477 kts | 91° |
| 2026-04-21 21:46 | 14.15867 | 133.99455 | 36948 ft | 477 kts | 91° |
| 2026-04-21 21:46 | 14.15711 | 134.06281 | 36945 ft | 476 kts | 91° |
| 2026-04-21 21:47 | 14.15552 | 134.13100 | 36937 ft | 476 kts | 91° |
| 2026-04-21 21:47 | 14.15393 | 134.19868 | 36943 ft | 476 kts | 91° |
| 2026-04-21 21:48 | 14.15231 | 134.26673 | 36945 ft | 475 kts | 91° |
| 2026-04-21 21:48 | 14.15067 | 134.33477 | 36946 ft | 475 kts | 91° |
| 2026-04-21 21:49 | 14.14902 | 134.40286 | 36944 ft | 475 kts | 91° |
| 2026-04-21 21:49 | 14.14734 | 134.47086 | 36941 ft | 475 kts | 91° |
| 2026-04-21 21:50 | 14.14565 | 134.53886 | 36940 ft | 475 kts | 91° |
| 2026-04-21 21:50 | 14.14393 | 134.60694 | 36943 ft | 475 kts | 91° |
| 2026-04-21 21:51 | 14.14219 | 134.67504 | 36943 ft | 476 kts | 91° |
| 2026-04-21 21:51 | 14.14044 | 134.74328 | 36944 ft | 476 kts | 91° |
| 2026-04-21 21:52 | 14.13866 | 134.81148 | 36946 ft | 477 kts | 91° |
| 2026-04-21 21:52 | 14.13686 | 134.87978 | 36945 ft | 477 kts | 91° |
| 2026-04-21 21:53 | 14.13505 | 134.94806 | 36946 ft | 477 kts | 91° |
| 2026-04-21 21:53 | 14.13313 | 135.01639 | 36943 ft | 477 kts | 92° |
| 2026-04-21 21:54 | 14.13005 | 135.08465 | 36944 ft | 477 kts | 92° |
| 2026-04-21 21:54 | 14.12655 | 135.15287 | 36947 ft | 477 kts | 92° |
| 2026-04-21 21:55 | 14.12314 | 135.22065 | 36946 ft | 477 kts | 92° |
| 2026-04-21 21:55 | 14.11979 | 135.28927 | 36945 ft | 476 kts | 92° |
| 2026-04-21 21:56 | 14.11649 | 135.35747 | 36943 ft | 476 kts | 92° |
| 2026-04-21 21:56 | 14.11318 | 135.42558 | 36941 ft | 476 kts | 92° |
| 2026-04-21 21:57 | 14.10984 | 135.49364 | 36942 ft | 475 kts | 92° |
| 2026-04-21 21:57 | 14.10649 | 135.56161 | 36947 ft | 475 kts | 92° |
| 2026-04-21 21:58 | 14.10315 | 135.62903 | 36945 ft | 474 kts | 92° |
| 2026-04-21 21:58 | 14.09977 | 135.69680 | 36940 ft | 474 kts | 92° |
| 2026-04-21 21:59 | 14.09637 | 135.76452 | 36940 ft | 473 kts | 92° |
| 2026-04-21 21:59 | 14.09296 | 135.83218 | 36944 ft | 473 kts | 92° |
| 2026-04-21 22:00 | 14.08952 | 135.89986 | 36947 ft | 473 kts | 92° |
| 2026-04-21 22:00 | 14.08607 | 135.96753 | 36952 ft | 473 kts | 92° |
| 2026-04-21 22:01 | 14.08260 | 136.03527 | 36952 ft | 474 kts | 92° |
| 2026-04-21 22:01 | 14.07910 | 136.10310 | 36947 ft | 474 kts | 92° |
| 2026-04-21 22:02 | 14.07558 | 136.17097 | 36948 ft | 475 kts | 92° |
| 2026-04-21 22:02 | 14.07204 | 136.23883 | 36949 ft | 475 kts | 92° |
| 2026-04-21 22:03 | 14.06848 | 136.30677 | 36947 ft | 475 kts | 92° |
| 2026-04-21 22:03 | 14.06490 | 136.37466 | 36954 ft | 474 kts | 92° |
| 2026-04-21 22:04 | 14.06131 | 136.44251 | 36945 ft | 474 kts | 92° |
| 2026-04-21 22:04 | 14.05770 | 136.51025 | 36947 ft | 473 kts | 92° |
| 2026-04-21 22:05 | 14.05408 | 136.57790 | 36949 ft | 473 kts | 92° |
| 2026-04-21 22:05 | 14.05044 | 136.64547 | 36955 ft | 472 kts | 92° |
| 2026-04-21 22:06 | 14.04679 | 136.71296 | 36951 ft | 472 kts | 92° |
| 2026-04-21 22:06 | 14.04312 | 136.78043 | 36952 ft | 472 kts | 92° |
| 2026-04-21 22:07 | 14.03944 | 136.84786 | 36951 ft | 472 kts | 92° |
| 2026-04-21 22:07 | 14.03573 | 136.91529 | 36948 ft | 472 kts | 92° |
| 2026-04-21 22:08 | 14.03204 | 136.98221 | 36959 ft | 472 kts | 92° |
| 2026-04-21 22:08 | 14.02830 | 137.04968 | 36956 ft | 472 kts | 92° |
| 2026-04-21 22:09 | 14.02453 | 137.11716 | 36955 ft | 472 kts | 92° |
| 2026-04-21 22:09 | 14.02075 | 137.18462 | 36952 ft | 472 kts | 92° |
| 2026-04-21 22:10 | 14.01695 | 137.25209 | 36951 ft | 472 kts | 92° |
| 2026-04-21 22:10 | 14.01313 | 137.31961 | 36954 ft | 472 kts | 92° |
| 2026-04-21 22:11 | 14.00994 | 137.37573 | 36956 ft | 472 kts | 92° |
| 2026-04-21 22:11 | 14.00608 | 137.44323 | 36953 ft | 472 kts | 92° |
| 2026-04-21 22:12 | 14.00221 | 137.51077 | 36951 ft | 472 kts | 92° |
| 2026-04-21 22:12 | 13.99832 | 137.57820 | 36952 ft | 472 kts | 92° |
| 2026-04-21 22:13 | 13.99441 | 137.64571 | 36953 ft | 472 kts | 92° |
| 2026-04-21 22:13 | 13.99048 | 137.71315 | 36957 ft | 472 kts | 92° |
| 2026-04-21 22:14 | 13.98654 | 137.78063 | 36956 ft | 472 kts | 92° |
| 2026-04-21 22:14 | 13.98257 | 137.84810 | 36951 ft | 472 kts | 92° |
| 2026-04-21 22:15 | 13.97858 | 137.91558 | 36956 ft | 472 kts | 92° |
| 2026-04-21 22:15 | 13.97458 | 137.98303 | 36959 ft | 472 kts | 92° |
| 2026-04-21 22:16 | 13.97055 | 138.05056 | 36958 ft | 472 kts | 92° |
| 2026-04-21 22:16 | 13.96651 | 138.11812 | 36959 ft | 473 kts | 92° |
| 2026-04-21 22:17 | 13.96244 | 138.18567 | 36956 ft | 473 kts | 92° |
| 2026-04-21 22:17 | 13.95839 | 138.25277 | 36955 ft | 472 kts | 92° |
| 2026-04-21 22:18 | 13.95428 | 138.32020 | 36956 ft | 472 kts | 92° |
| 2026-04-21 22:18 | 13.95016 | 138.38751 | 36959 ft | 471 kts | 92° |
| 2026-04-21 22:19 | 13.94605 | 138.45474 | 36959 ft | 470 kts | 92° |
| 2026-04-21 22:19 | 13.94195 | 138.52186 | 36956 ft | 469 kts | 92° |
| 2026-04-21 22:20 | 13.93780 | 138.58897 | 36953 ft | 469 kts | 92° |
| 2026-04-21 22:20 | 13.93362 | 138.65597 | 36951 ft | 469 kts | 92° |
| 2026-04-21 22:21 | 13.92943 | 138.72302 | 36960 ft | 470 kts | 93° |
| 2026-04-21 22:21 | 13.92526 | 138.79015 | 36965 ft | 470 kts | 92° |
| 2026-04-21 22:22 | 13.92105 | 138.85699 | 36960 ft | 471 kts | 92° |
| 2026-04-21 22:22 | 13.91678 | 138.92432 | 36959 ft | 472 kts | 93° |
| 2026-04-21 22:23 | 13.91251 | 138.99178 | 36953 ft | 473 kts | 93° |
| 2026-04-21 22:23 | 13.90821 | 139.05936 | 36960 ft | 473 kts | 92° |
| 2026-04-21 22:24 | 13.90386 | 139.12691 | 36958 ft | 473 kts | 93° |
| 2026-04-21 22:24 | 13.89949 | 139.19447 | 36963 ft | 473 kts | 93° |
| 2026-04-21 22:25 | 13.89513 | 139.26204 | 36962 ft | 473 kts | 94° |
| 2026-04-21 22:25 | 13.89076 | 139.32950 | 36957 ft | 472 kts | 92° |
| 2026-04-21 22:26 | 13.88639 | 139.39671 | 36954 ft | 470 kts | 92° |
| 2026-04-21 22:26 | 13.88201 | 139.46369 | 36958 ft | 469 kts | 94° |
| 2026-04-21 22:27 | 13.87762 | 139.53057 | 36957 ft | 467 kts | 92° |
| 2026-04-21 22:27 | 13.87319 | 139.59726 | 36958 ft | 467 kts | 92° |
| 2026-04-21 22:28 | 13.86878 | 139.66388 | 36964 ft | 467 kts | 93° |
| 2026-04-21 22:28 | 13.86435 | 139.73061 | 36957 ft | 468 kts | 93° |
| 2026-04-21 22:29 | 13.85990 | 139.79743 | 36958 ft | 469 kts | 93° |
| 2026-04-21 22:29 | 13.85542 | 139.86446 | 36966 ft | 470 kts | 92° |
| 2026-04-21 22:30 | 13.85093 | 139.93120 | 36964 ft | 471 kts | 93° |
| 2026-04-21 22:30 | 13.84635 | 139.99848 | 36968 ft | 472 kts | 93° |
| 2026-04-21 22:31 | 13.84174 | 140.06633 | 36953 ft | 473 kts | 93° |
| 2026-04-21 22:31 | 13.83719 | 140.13331 | 36962 ft | 472 kts | 94° |
| 2026-04-21 22:32 | 13.83259 | 140.20071 | 36963 ft | 472 kts | 93° |
| 2026-04-21 22:32 | 13.82795 | 140.26797 | 36972 ft | 471 kts | 93° |
| 2026-04-21 22:33 | 13.82331 | 140.33517 | 36965 ft | 470 kts | 94° |
| 2026-04-21 22:33 | 13.81866 | 140.40213 | 36960 ft | 468 kts | 93° |
| 2026-04-21 22:34 | 13.81402 | 140.46887 | 36959 ft | 467 kts | 93° |
| 2026-04-21 22:34 | 13.80944 | 140.53530 | 36967 ft | 465 kts | 91° |
| 2026-04-21 22:34 | 13.81082 | 140.56849 | 36918 ft | 463 kts | 80° |
| 2026-04-21 22:35 | 13.81847 | 140.60048 | 36951 ft | 461 kts | 68° |
| 2026-04-21 22:35 | 13.83640 | 140.66301 | 36980 ft | 459 kts | 89° |
| 2026-04-21 22:36 | 13.82783 | 140.76206 | 36973 ft | 469 kts | 96° |
| 2026-04-21 22:36 | 13.82019 | 140.82899 | 36969 ft | 473 kts | 95° |
| 2026-04-21 22:37 | 13.81376 | 140.89649 | 36965 ft | 475 kts | 95° |
| 2026-04-21 22:37 | 13.80800 | 140.96393 | 36951 ft | 470 kts | 94° |
| 2026-04-21 22:38 | 13.80242 | 141.03041 | 36957 ft | 464 kts | 94° |
| 2026-04-21 22:38 | 13.79686 | 141.09628 | 36972 ft | 463 kts | 94° |
| 2026-04-21 22:39 | 13.79119 | 141.16274 | 36983 ft | 470 kts | 95° |
| 2026-04-21 22:39 | 13.78546 | 141.22958 | 36974 ft | 474 kts | 94° |
| 2026-04-21 22:40 | 13.77962 | 141.29724 | 36964 ft | 474 kts | 94° |
| 2026-04-21 22:40 | 13.77383 | 141.36407 | 36958 ft | 466 kts | 95° |
| 2026-04-21 22:41 | 13.76807 | 141.43068 | 36976 ft | 463 kts | 94° |
| 2026-04-21 22:41 | 13.76239 | 141.49612 | 36975 ft | 461 kts | 95° |
| 2026-04-21 22:42 | 13.75666 | 141.56184 | 36967 ft | 461 kts | 94° |
| 2026-04-21 22:42 | 13.75092 | 141.62753 | 36971 ft | 462 kts | 94° |
| 2026-04-21 22:43 | 13.74513 | 141.69348 | 36972 ft | 463 kts | 95° |
| 2026-04-21 22:43 | 13.73931 | 141.75962 | 36974 ft | 465 kts | 94° |
| 2026-04-21 22:44 | 13.73347 | 141.82600 | 36972 ft | 467 kts | 95° |
| 2026-04-21 22:44 | 13.72756 | 141.89268 | 36968 ft | 469 kts | 94° |
| 2026-04-21 22:45 | 13.72162 | 141.95952 | 36971 ft | 470 kts | 95° |
| 2026-04-21 22:45 | 13.71566 | 142.02649 | 36972 ft | 470 kts | 95° |
| 2026-04-21 22:46 | 13.70968 | 142.09344 | 36968 ft | 470 kts | 95° |
| 2026-04-21 22:46 | 13.70367 | 142.16037 | 36966 ft | 470 kts | 95° |
| 2026-04-21 22:47 | 13.69767 | 142.22721 | 36965 ft | 469 kts | 95° |
| 2026-04-21 22:47 | 13.69165 | 142.29392 | 36965 ft | 468 kts | 95° |
| 2026-04-21 22:48 | 13.68563 | 142.36052 | 36971 ft | 467 kts | 95° |
| 2026-04-21 22:48 | 13.67960 | 142.42702 | 36975 ft | 467 kts | 95° |
| 2026-04-21 22:49 | 13.67356 | 142.49346 | 36969 ft | 467 kts | 95° |
| 2026-04-21 22:49 | 13.66754 | 142.55942 | 36964 ft | 466 kts | 95° |
| 2026-04-21 22:50 | 13.66146 | 142.62582 | 36969 ft | 466 kts | 95° |
| 2026-04-21 22:50 | 13.65537 | 142.69217 | 36974 ft | 466 kts | 95° |
| 2026-04-21 22:51 | 13.64925 | 142.75863 | 36975 ft | 467 kts | 95° |
| 2026-04-21 22:51 | 13.64313 | 142.82492 | 36736 ft | 461 kts | 95° |
| 2026-04-21 22:52 | 13.64011 | 142.85760 | 36132 ft | 459 kts | 95° |
| 2026-04-21 22:52 | 13.63705 | 142.89056 | 35224 ft | 468 kts | 95° |
| 2026-04-21 22:52 | 13.63395 | 142.92409 | 34434 ft | 473 kts | 95° |
| 2026-04-21 22:52 | 13.63081 | 142.95793 | 33561 ft | 479 kts | 94° |
| 2026-04-21 22:53 | 13.62761 | 142.99215 | 32740 ft | 482 kts | 95° |
| 2026-04-21 22:53 | 13.62443 | 143.02628 | 32224 ft | 478 kts | 94° |
| 2026-04-21 22:53 | 13.62144 | 143.06021 | 31611 ft | 476 kts | 94° |
| 2026-04-21 22:53 | 13.61881 | 143.09396 | 31150 ft | 471 kts | 93° |
| 2026-04-21 22:54 | 13.61635 | 143.12739 | 30627 ft | 468 kts | 93° |
| 2026-04-21 22:54 | 13.61393 | 143.16066 | 30090 ft | 466 kts | 94° |
| 2026-04-21 22:54 | 13.61150 | 143.19371 | 29529 ft | 462 kts | 94° |
| 2026-04-21 22:54 | 13.60907 | 143.22638 | 29069 ft | 455 kts | 93° |
| 2026-04-21 22:55 | 13.60663 | 143.25871 | 28524 ft | 452 kts | 93° |
| 2026-04-21 22:55 | 13.60418 | 143.29080 | 27907 ft | 450 kts | 93° |
| 2026-04-21 22:55 | 13.60172 | 143.32276 | 27380 ft | 446 kts | 94° |
| 2026-04-21 22:55 | 13.59929 | 143.35430 | 26989 ft | 439 kts | 94° |
| 2026-04-21 22:56 | 13.59689 | 143.38552 | 26373 ft | 439 kts | 93° |
| 2026-04-21 22:56 | 13.59448 | 143.41671 | 25926 ft | 434 kts | 93° |
| 2026-04-21 22:56 | 13.59210 | 143.44746 | 25474 ft | 430 kts | 93° |
| 2026-04-21 22:56 | 13.58972 | 143.47808 | 24933 ft | 429 kts | 92° |
| 2026-04-21 22:57 | 13.58736 | 143.50845 | 24567 ft | 423 kts | 93° |
| 2026-04-21 22:57 | 13.58503 | 143.53843 | 24110 ft | 420 kts | 93° |
| 2026-04-21 22:57 | 13.58271 | 143.56827 | 23638 ft | 418 kts | 94° |
| 2026-04-21 22:57 | 13.58040 | 143.59785 | 23189 ft | 413 kts | 93° |
| 2026-04-21 22:58 | 13.57810 | 143.62721 | 22627 ft | 411 kts | 93° |
| 2026-04-21 22:58 | 13.57658 | 143.64656 | 22309 ft | 409 kts | 94° |
| 2026-04-21 22:58 | 13.57358 | 143.68479 | 21707 ft | 403 kts | 93° |
| 2026-04-21 22:58 | 13.57207 | 143.70417 | 21351 ft | 402 kts | 94° |
| 2026-04-21 22:59 | 13.56912 | 143.74185 | 20798 ft | 396 kts | 94° |
| 2026-04-21 22:59 | 13.56692 | 143.76993 | 20331 ft | 393 kts | 94° |
| 2026-04-21 22:59 | 13.56472 | 143.79790 | 19859 ft | 391 kts | 94° |
| 2026-04-21 22:59 | 13.56253 | 143.82568 | 19462 ft | 387 kts | 94° |
| 2026-04-21 23:00 | 13.56107 | 143.84426 | 19160 ft | 386 kts | 95° |
| 2026-04-21 23:00 | 13.55893 | 143.87132 | 18706 ft | 384 kts | 95° |
| 2026-04-21 23:00 | 13.55677 | 143.89853 | 18317 ft | 380 kts | 95° |
| 2026-04-21 23:00 | 13.55464 | 143.92549 | 17860 ft | 377 kts | 95° |
| 2026-04-21 23:01 | 13.55251 | 143.95229 | 17400 ft | 374 kts | 95° |
| 2026-04-21 23:01 | 13.55040 | 143.97881 | 16952 ft | 371 kts | 95° |
| 2026-04-21 23:01 | 13.54831 | 144.00509 | 16522 ft | 368 kts | 95° |
| 2026-04-21 23:01 | 13.54623 | 144.03121 | 16073 ft | 365 kts | 95° |
| 2026-04-21 23:02 | 13.54416 | 144.05713 | 15657 ft | 362 kts | 95° |
| 2026-04-21 23:02 | 13.54211 | 144.08281 | 15240 ft | 359 kts | 95° |
| 2026-04-21 23:02 | 13.54007 | 144.10831 | 14822 ft | 357 kts | 95° |
| 2026-04-21 23:02 | 13.53804 | 144.13361 | 14413 ft | 354 kts | 96° |
| 2026-04-21 23:03 | 13.53602 | 144.15875 | 14010 ft | 352 kts | 96° |
| 2026-04-21 23:03 | 13.53402 | 144.18367 | 13602 ft | 349 kts | 96° |
| 2026-04-21 23:03 | 13.53203 | 144.20841 | 13172 ft | 346 kts | 95° |
| 2026-04-21 23:03 | 13.53006 | 144.23295 | 12749 ft | 343 kts | 96° |
| 2026-04-21 23:04 | 13.52810 | 144.25725 | 12361 ft | 339 kts | 96° |
| 2026-04-21 23:04 | 13.52615 | 144.28128 | 11955 ft | 336 kts | 95° |
| 2026-04-21 23:04 | 13.52422 | 144.30517 | 11530 ft | 334 kts | 95° |
| 2026-04-21 23:04 | 13.52231 | 144.32876 | 11275 ft | 326 kts | 95° |
| 2026-04-21 23:05 | 13.52048 | 144.35156 | 11172 ft | 314 kts | 94° |
| 2026-04-21 23:05 | 13.52200 | 144.37350 | 11081 ft | 304 kts | 79° |
| 2026-04-21 23:05 | 13.52738 | 144.39404 | 10992 ft | 294 kts | 68° |
| 2026-04-21 23:05 | 13.53648 | 144.41242 | 10929 ft | 284 kts | 62° |
| 2026-04-21 23:06 | 13.54602 | 144.42982 | 10840 ft | 275 kts | 62° |
| 2026-04-21 23:06 | 13.55536 | 144.44656 | 10769 ft | 265 kts | 62° |
| 2026-04-21 23:06 | 13.56444 | 144.46266 | 10697 ft | 254 kts | 61° |
| 2026-04-21 23:06 | 13.57092 | 144.47899 | 10435 ft | 244 kts | 84° |
| 2026-04-21 23:07 | 13.56890 | 144.49590 | 10029 ft | 240 kts | 114° |
| 2026-04-21 23:07 | 13.55922 | 144.50958 | 9536 ft | 239 kts | 133° |
| 2026-04-21 23:07 | 13.54745 | 144.52134 | 9156 ft | 233 kts | 134° |
| 2026-04-21 23:07 | 13.53499 | 144.53191 | 8654 ft | 236 kts | 149° |
| 2026-04-21 23:08 | 13.51911 | 144.53670 | 8145 ft | 239 kts | 168° |
| 2026-04-21 23:08 | 13.50259 | 144.53915 | 7632 ft | 240 kts | 169° |
| 2026-04-21 23:08 | 13.48607 | 144.54131 | 7181 ft | 238 kts | 169° |
| 2026-04-21 23:08 | 13.46984 | 144.54249 | 6746 ft | 238 kts | 179° |
| 2026-04-21 23:09 | 13.45339 | 144.54133 | 6321 ft | 235 kts | 180° |
| 2026-04-21 23:09 | 13.43710 | 144.54011 | 5826 ft | 234 kts | 180° |
| 2026-04-21 23:09 | 13.42114 | 144.54072 | 5310 ft | 226 kts | 159° |
| 2026-04-21 23:09 | 13.40775 | 144.54838 | 4761 ft | 220 kts | 136° |
| 2026-04-21 23:10 | 13.39984 | 144.56125 | 4229 ft | 212 kts | 101° |
| 2026-04-21 23:10 | 13.39870 | 144.57558 | 4129 ft | 192 kts | 91° |
| 2026-04-21 23:10 | 13.39833 | 144.58923 | 3889 ft | 192 kts | 90° |
| 2026-04-21 23:10 | 13.39823 | 144.60276 | 3696 ft | 187 kts | 82° |
| 2026-04-21 23:11 | 13.40237 | 144.61480 | 3630 ft | 182 kts | 66° |
| 2026-04-21 23:11 | 13.40763 | 144.62670 | 3437 ft | 183 kts | 67° |
| 2026-04-21 23:11 | 13.41284 | 144.63835 | 3204 ft | 177 kts | 66° |
| 2026-04-21 23:11 | 13.41792 | 144.64959 | 2987 ft | 170 kts | 66° |
| 2026-04-21 23:12 | 13.42284 | 144.66045 | 2776 ft | 166 kts | 66° |
| 2026-04-21 23:12 | 13.42768 | 144.67111 | 2563 ft | 165 kts | 66° |
| 2026-04-21 23:12 | 13.43250 | 144.68174 | 2355 ft | 162 kts | 65° |
| 2026-04-21 23:12 | 13.43717 | 144.69205 | 2151 ft | 158 kts | 66° |
| 2026-04-21 23:13 | 13.44198 | 144.70261 | 1959 ft | 166 kts | 66° |
| 2026-04-21 23:13 | 13.44687 | 144.71337 | 1706 ft | 161 kts | 66° |
| 2026-04-21 23:13 | 13.45128 | 144.72316 | 1556 ft | 142 kts | 66° |
| 2026-04-21 23:13 | 13.45534 | 144.73204 | 1358 ft | 137 kts | 67° |
| 2026-04-21 23:14 | 13.45926 | 144.74095 | 1192 ft | 136 kts | 66° |
| 2026-04-21 23:14 | 13.46344 | 144.74990 | 1013 ft | 141 kts | 64° |
| 2026-04-21 23:14 | 13.46759 | 144.75908 | 833 ft | 139 kts | 64° |
| 2026-04-21 23:14 | 13.47166 | 144.76799 | 588 ft | 135 kts | 65° |
| 2026-04-21 23:15 | 13.47559 | 144.77674 | 432 ft | 136 kts | 63° |
| 2026-04-21 23:15 | 13.47964 | 144.78553 | 293 ft | 136 kts | 64° |
| 2026-04-21 23:15 | 13.48333 | 144.79357 | 278 ft | 108 kts | 66° |
| 2026-04-21 23:15 | 13.48588 | 144.79917 | 283 ft | 65 kts | 65° |
| 2026-04-21 23:16 | 13.48737 | 144.80245 | 293 ft | 46 kts | 65° |
| 2026-04-21 23:16 | 13.48861 | 144.80518 | 294 ft | 39 kts | 64° |
| 2026-04-21 23:16 | 13.48972 | 144.80756 | 296 ft | 34 kts | 64° |
| 2026-04-21 23:16 | 13.49097 | 144.80925 | 297 ft | 22 kts | 30° |
| 2026-04-21 23:17 | 13.49184 | 144.80972 | 297 ft | 12 kts | 26° |
| 2026-04-21 23:17 | 13.49259 | 144.81006 | 297 ft | 12 kts | 25° |
| 2026-04-21 23:17 | 13.49320 | 144.81007 | 299 ft | 8 kts | 338° |
| 2026-04-21 23:17 | 13.49367 | 144.80974 | 297 ft | 8 kts | 311° |
| 2026-04-21 23:18 | 13.49382 | 144.80945 | 299 ft | 3 kts | 298° |
| 2026-04-21 23:18 | 13.49390 | 144.80930 | 298 ft | 0 kts | 290° |